createdAt,value
2019-05-16T00:01:31.264Z,95519.00
2019-05-16T00:04:01.765Z,95513.00
2019-05-16T00:06:32.234Z,95518.00
2019-05-16T00:09:02.725Z,95513.00
2019-05-16T00:11:33.593Z,95510.00
2019-05-16T00:14:04.146Z,95520.00
2019-05-16T00:16:34.597Z,95508.00
2019-05-16T00:19:05.308Z,95501.00
2019-05-16T00:21:35.748Z,95498.00
2019-05-16T00:24:08.257Z,95489.00
2019-05-16T00:26:39.073Z,95489.00
2019-05-16T00:29:09.705Z,95485.00
2019-05-16T00:31:40.176Z,95489.00
2019-05-16T00:34:10.684Z,95483.00
2019-05-16T00:36:41.166Z,95478.00
2019-05-16T00:39:11.694Z,95476.00
2019-05-16T00:41:42.402Z,95467.00
2019-05-16T00:44:12.912Z,95463.00
2019-05-16T00:46:43.480Z,95459.00
2019-05-16T00:49:14.220Z,95468.00
2019-05-16T00:51:45.287Z,95468.00
2019-05-16T00:54:15.910Z,95463.00
2019-05-16T00:56:48.705Z,95464.00
2019-05-16T00:59:20.251Z,95452.00
2019-05-16T01:01:50.719Z,95447.00
2019-05-16T01:04:21.172Z,95450.00
2019-05-16T01:06:51.630Z,95447.00
2019-05-16T01:09:22.116Z,95439.00
2019-05-16T01:11:52.659Z,95441.00
2019-05-16T01:14:23.117Z,95435.00
2019-05-16T01:16:53.750Z,95435.00
2019-05-16T01:19:24.223Z,95435.00
2019-05-16T01:21:54.690Z,95434.00
2019-05-16T01:24:25.435Z,95446.00
2019-05-16T01:26:57.782Z,95429.00
2019-05-16T01:29:28.379Z,95423.00
2019-05-16T01:31:59.131Z,95417.00
2019-05-16T01:34:29.703Z,95417.00
2019-05-16T01:37:00.249Z,95409.00
2019-05-16T01:39:30.750Z,95411.00
2019-05-16T01:42:01.324Z,95405.00
2019-05-16T01:44:31.811Z,95410.00
2019-05-16T01:47:02.297Z,95409.00
2019-05-16T01:49:32.767Z,95408.00
2019-05-16T01:52:03.235Z,95400.00
2019-05-16T01:54:36.094Z,95387.00
2019-05-16T01:57:08.122Z,95395.00
2019-05-16T01:59:38.687Z,95394.00
2019-05-16T02:02:09.182Z,95385.00
2019-05-16T02:04:39.709Z,95388.00
2019-05-16T02:07:10.258Z,95382.00
2019-05-16T02:09:40.791Z,95375.00
2019-05-16T02:12:11.832Z,95386.00
2019-05-16T02:14:42.289Z,95382.00
2019-05-16T02:17:13.078Z,95373.00
2019-05-16T02:19:43.679Z,95375.00
2019-05-16T02:22:14.357Z,95371.00
2019-05-16T02:24:44.827Z,95365.00
2019-05-16T02:27:15.393Z,95367.00
2019-05-16T02:29:45.961Z,95361.00
2019-05-16T02:32:16.477Z,95359.00
2019-05-16T02:34:46.985Z,95358.00
2019-05-16T02:37:25.845Z,95359.00
2019-05-16T02:39:51.594Z,95354.00
2019-05-16T02:42:22.017Z,95347.00
2019-05-16T02:44:52.529Z,95352.00
2019-05-16T02:47:23.069Z,95343.00
2019-05-16T02:49:53.539Z,95331.00
2019-05-16T02:52:24.204Z,95338.00
2019-05-16T02:54:54.649Z,95337.00
2019-05-16T02:57:25.353Z,95332.00
2019-05-16T02:59:55.833Z,95331.00
2019-05-16T03:02:26.357Z,95327.00
2019-05-16T03:04:56.852Z,95324.00
2019-05-16T03:07:41.186Z,95312.00
2019-05-16T03:10:03.406Z,95309.00
2019-05-16T03:12:36.539Z,95313.00
2019-05-16T03:15:10.729Z,95308.00
2019-05-16T03:17:44.197Z,95311.00
2019-05-16T03:20:15.093Z,95308.00
2019-05-16T03:22:46.919Z,95299.00
2019-05-16T03:25:17.573Z,95295.00
2019-05-16T03:27:51.133Z,95299.00
2019-05-16T03:30:23.818Z,95292.00
2019-05-16T03:32:55.164Z,95296.00
2019-05-16T03:35:25.976Z,95293.00
2019-05-16T03:38:00.639Z,95284.00
2019-05-16T03:40:31.355Z,95276.00
2019-05-16T03:43:01.920Z,95279.00
2019-05-16T03:45:32.535Z,95277.00
2019-05-16T03:48:03.635Z,95262.00
2019-05-16T03:50:37.240Z,95270.00
2019-05-16T03:53:11.681Z,95275.00
2019-05-16T03:55:41.470Z,95264.00
2019-05-16T03:58:11.979Z,95268.00
2019-05-16T04:00:54.864Z,95270.00
2019-05-16T04:03:28.492Z,95269.00
2019-05-16T04:06:00.851Z,95275.00
2019-05-16T04:08:31.175Z,95264.00
2019-05-16T04:11:02.029Z,95265.00
2019-05-16T04:13:33.021Z,95262.00
2019-05-16T04:16:03.546Z,95254.00
2019-05-16T04:18:34.131Z,95260.00
2019-05-16T04:21:04.643Z,95258.00
2019-05-16T04:23:35.341Z,95257.00
2019-05-16T04:26:05.917Z,95260.00
2019-05-16T04:28:36.824Z,95252.00
2019-05-16T04:31:10.690Z,95257.00
2019-05-16T04:33:41.588Z,95258.00
2019-05-16T04:36:11.971Z,95252.00
2019-05-16T04:38:46.520Z,95252.00
2019-05-16T04:41:14.983Z,95258.00
2019-05-16T04:43:50.315Z,95247.00
2019-05-16T04:46:21.334Z,95239.00
2019-05-16T04:48:54.343Z,95236.00
2019-05-16T04:51:25.175Z,95244.00
2019-05-16T04:53:55.675Z,95248.00
2019-05-16T04:56:26.285Z,95255.00
2019-05-16T04:58:56.772Z,95253.00
2019-05-16T05:01:30.526Z,95247.00
2019-05-16T05:04:09.652Z,95247.00
2019-05-16T05:06:31.920Z,95253.00
2019-05-16T05:09:03.620Z,95261.00
2019-05-16T05:14:22.245Z,95258.00
2019-05-16T05:16:52.733Z,95252.00
2019-05-16T05:19:23.223Z,95252.00
2019-05-16T05:21:53.801Z,95247.00
2019-05-16T05:24:25.328Z,95259.00
2019-05-16T05:26:55.893Z,95247.00
2019-05-16T05:29:30.547Z,95247.00
2019-05-16T05:32:04.418Z,95256.00
2019-05-16T05:34:32.523Z,95256.00
2019-05-16T05:37:03.023Z,95254.00
2019-05-16T05:39:33.506Z,95255.00
2019-05-16T05:42:04.084Z,95255.00
2019-05-16T05:44:34.586Z,95268.00
2019-05-16T05:47:05.140Z,95260.00
2019-05-16T05:49:35.838Z,95266.00
2019-05-16T05:52:06.593Z,95255.00
2019-05-16T05:54:40.763Z,95264.00
2019-05-16T05:57:11.184Z,95265.00
2019-05-16T05:59:41.682Z,95263.00
2019-05-16T06:02:12.152Z,95266.00
2019-05-16T06:04:42.605Z,95255.00
2019-05-16T06:07:13.078Z,95264.00
2019-05-16T06:09:53.450Z,95258.00
2019-05-16T06:12:16.152Z,95257.00
2019-05-16T06:14:46.717Z,95262.00
2019-05-16T06:17:19.921Z,95256.00
2019-05-16T06:19:49.886Z,95252.00
2019-05-16T06:22:20.684Z,95248.00
2019-05-16T06:24:51.198Z,95254.00
2019-05-16T06:27:21.683Z,95260.00
2019-05-16T06:29:52.165Z,95255.00
2019-05-16T06:32:22.694Z,95266.00
2019-05-16T06:34:53.196Z,95256.00
2019-05-16T06:37:26.465Z,95262.00
2019-05-16T06:39:56.911Z,95259.00
2019-05-16T06:42:29.992Z,95250.00
2019-05-16T06:45:00.985Z,95250.00
2019-05-16T06:47:31.617Z,95243.00
2019-05-16T06:50:02.124Z,95245.00
2019-05-16T06:52:32.683Z,95251.00
2019-05-16T06:55:03.412Z,95244.00
2019-05-16T06:57:33.918Z,95246.00
2019-05-16T07:00:05.917Z,95248.00
2019-05-16T07:02:36.622Z,95238.00
2019-05-16T07:05:09.926Z,95236.00
2019-05-16T07:07:40.615Z,95231.00
2019-05-16T07:10:11.387Z,95224.00
2019-05-16T07:12:41.915Z,95214.00
2019-05-16T07:15:12.815Z,95211.00
2019-05-16T07:17:43.275Z,95219.00
2019-05-16T07:20:14.942Z,95215.00
2019-05-16T07:22:50.119Z,95213.00
2019-05-16T07:25:20.848Z,95210.00
2019-05-16T07:27:53.123Z,95207.00
2019-05-16T07:30:24.547Z,95208.00
2019-05-16T07:32:55.081Z,95209.00
2019-05-16T07:35:25.579Z,95212.00
2019-05-16T07:37:56.123Z,95211.00
2019-05-16T07:40:27.128Z,95206.00
2019-05-16T07:43:00.029Z,95208.00
2019-05-16T07:45:31.602Z,95196.00
2019-05-16T07:48:02.153Z,95189.00
2019-05-16T07:50:32.548Z,95185.00
2019-05-16T07:53:04.201Z,95178.00
2019-05-16T07:55:34.663Z,95179.00
2019-05-16T07:58:05.181Z,95175.00
2019-05-16T08:00:49.664Z,95174.00
2019-05-16T08:03:10.609Z,95164.00
2019-05-16T08:05:41.468Z,95168.00
2019-05-16T08:08:12.126Z,95171.00
2019-05-16T08:10:46.555Z,95164.00
2019-05-16T08:13:17.592Z,95156.00
2019-05-16T08:15:50.168Z,95165.00
2019-05-16T08:18:21.487Z,95165.00
2019-05-16T08:20:52.797Z,95159.00
2019-05-16T08:23:23.828Z,95155.00
2019-05-16T08:25:54.329Z,95152.00
2019-05-16T08:28:24.839Z,95157.00
2019-05-16T08:30:55.342Z,95156.00
2019-05-16T08:33:25.877Z,95165.00
2019-05-16T08:35:56.494Z,95165.00
2019-05-16T08:38:27.047Z,95161.00
2019-05-16T08:43:31.567Z,95170.00
2019-05-16T08:46:02.098Z,95159.00
2019-05-16T08:48:32.967Z,95156.00
2019-05-16T08:51:03.749Z,95156.00
2019-05-16T08:53:34.294Z,95155.00
2019-05-16T08:56:06.249Z,95152.00
2019-05-16T08:58:36.993Z,95145.00
2019-05-16T09:01:14.659Z,95139.00
2019-05-16T09:03:42.351Z,95142.00
2019-05-16T09:06:12.816Z,95137.00
2019-05-16T09:08:43.426Z,95132.00
2019-05-16T09:10:31.602Z,95165.00
2019-05-16T09:11:29.387Z,95132.00
2019-05-16T09:13:47.772Z,95137.00
2019-05-16T09:16:18.478Z,95126.00
2019-05-16T09:18:50.986Z,95131.00
2019-05-16T09:21:22.336Z,95120.00
2019-05-16T09:23:53.722Z,95126.00
2019-05-16T09:26:24.173Z,95126.00
2019-05-16T09:28:57.039Z,95120.00
2019-05-16T09:31:27.600Z,95122.00
2019-05-16T09:33:58.357Z,95114.00
2019-05-16T09:36:28.965Z,95117.00
2019-05-16T09:39:02.262Z,95103.00
2019-05-16T09:41:53.903Z,95109.00
2019-05-16T09:44:08.707Z,95107.00
2019-05-16T09:46:41.542Z,95102.00
2019-05-16T09:49:19.408Z,95094.00
2019-05-16T09:51:46.519Z,95095.00
2019-05-16T09:54:16.933Z,95099.00
2019-05-16T09:56:47.502Z,95093.00
2019-05-16T09:59:18.116Z,95090.00
2019-05-16T10:01:48.719Z,95093.00
2019-05-16T10:04:19.197Z,95091.00
2019-05-16T10:06:49.651Z,95092.00
2019-05-16T10:09:20.153Z,95088.00
2019-05-16T10:12:05.459Z,95087.00
2019-05-16T10:14:22.800Z,95085.00
2019-05-16T10:16:53.315Z,95083.00
2019-05-16T10:19:23.824Z,95077.00
2019-05-16T10:21:59.920Z,95081.00
2019-05-16T10:24:27.067Z,95075.00
2019-05-16T10:26:57.544Z,95076.00
2019-05-16T10:29:28.071Z,95084.00
2019-05-16T10:31:58.642Z,95073.00
2019-05-16T10:34:29.134Z,95067.00
2019-05-16T10:36:59.713Z,95065.00
2019-05-16T10:39:30.217Z,95072.00
2019-05-16T10:42:00.759Z,95069.00
2019-05-16T10:44:31.885Z,95073.00
2019-05-16T10:47:07.386Z,95068.00
2019-05-16T10:49:40.901Z,95059.00
2019-05-16T10:52:09.243Z,95062.00
2019-05-16T10:54:54.299Z,95061.00
2019-05-16T10:57:11.989Z,95061.00
2019-05-16T11:00:09.357Z,95061.00
2019-05-16T11:02:16.699Z,95054.00
2019-05-16T11:05:00.167Z,95057.00
2019-05-16T11:07:19.891Z,95054.00
2019-05-16T11:09:58.386Z,95055.00
2019-05-16T11:12:22.844Z,95047.00
2019-05-16T11:14:53.407Z,95039.00
2019-05-16T11:17:23.856Z,95045.00
2019-05-16T11:19:54.401Z,95041.00
2019-05-16T11:22:29.495Z,95038.00
2019-05-16T11:24:57.292Z,95033.00
2019-05-16T11:27:27.841Z,95031.00
2019-05-16T11:29:58.372Z,95026.00
2019-05-16T11:32:28.966Z,95023.00
2019-05-16T11:34:59.456Z,95022.00
2019-05-16T11:37:29.934Z,95021.00
2019-05-16T11:40:00.443Z,95014.00
2019-05-16T11:42:30.974Z,95005.00
2019-05-16T11:45:01.849Z,95020.00
2019-05-16T11:47:32.337Z,95025.00
2019-05-16T11:50:02.829Z,95013.00
2019-05-16T11:52:33.466Z,95007.00
2019-05-16T11:55:07.186Z,95011.00
2019-05-16T11:57:37.920Z,95003.00
2019-05-16T12:00:11.671Z,95001.00
2019-05-16T12:02:42.934Z,95000.00
2019-05-16T12:05:13.915Z,94999.00
2019-05-16T12:07:47.439Z,95001.00
2019-05-16T12:10:18.324Z,95004.00
2019-05-16T12:12:49.028Z,94991.00
2019-05-16T12:15:20.331Z,94994.00
2019-05-16T12:18:00.989Z,94999.00
2019-05-16T12:20:23.115Z,94992.00
2019-05-16T12:22:53.584Z,95006.00
2019-05-16T12:25:27.316Z,95005.00
2019-05-16T12:27:58.351Z,94999.00
2019-05-16T12:30:28.893Z,95000.00
2019-05-16T12:33:00.809Z,94994.00
2019-05-16T12:35:31.300Z,94996.00
2019-05-16T12:38:01.770Z,95000.00
2019-05-16T12:40:32.218Z,94998.00
2019-05-16T12:43:07.518Z,94998.00
2019-05-16T12:45:38.686Z,95003.00
2019-05-16T12:48:09.142Z,95003.00
2019-05-16T12:50:39.627Z,94994.00
2019-05-16T12:53:12.305Z,94993.00
2019-05-16T12:55:42.899Z,94995.00
2019-05-16T12:58:24.582Z,94997.00
2019-05-16T13:00:54.108Z,94987.00
2019-05-16T13:03:19.834Z,94990.00
2019-05-16T13:05:50.339Z,94992.00
2019-05-16T13:08:20.997Z,94990.00
2019-05-16T13:10:54.510Z,94988.00
2019-05-16T13:13:27.600Z,94988.00
2019-05-16T13:15:57.698Z,94990.00
2019-05-16T13:18:28.293Z,94992.00
2019-05-16T13:20:58.876Z,94990.00
2019-05-16T13:23:29.603Z,94991.00
2019-05-16T13:26:00.578Z,94991.00
2019-05-16T13:28:31.084Z,94983.00
2019-05-16T13:31:01.862Z,94981.00
2019-05-16T13:33:32.403Z,94984.00
2019-05-16T13:36:03.071Z,94976.00
2019-05-16T13:38:33.562Z,94976.00
2019-05-16T13:41:07.150Z,94965.00
2019-05-16T13:43:37.559Z,94964.00
2019-05-16T13:46:08.309Z,94967.00
2019-05-16T13:48:38.797Z,94960.00
2019-05-16T13:51:15.232Z,94962.00
2019-05-16T13:53:41.927Z,94961.00
2019-05-16T13:56:13.653Z,94963.00
2019-05-16T13:58:46.765Z,94961.00
2019-05-16T14:01:17.303Z,94961.00
2019-05-16T14:03:48.369Z,94957.00
2019-05-16T14:06:19.044Z,94951.00
2019-05-16T14:08:49.568Z,94949.00
2019-05-16T14:11:20.054Z,94956.00
2019-05-16T14:13:50.514Z,94951.00
2019-05-16T14:16:21.005Z,94956.00
2019-05-16T14:18:51.488Z,94954.00
2019-05-16T14:21:22.042Z,94950.00
2019-05-16T14:23:53.552Z,94952.00
2019-05-16T14:26:24.375Z,94952.00
2019-05-16T14:28:58.043Z,94953.00
2019-05-16T14:31:28.580Z,94938.00
2019-05-16T14:33:59.159Z,94937.00
2019-05-16T14:36:31.134Z,94950.00
2019-05-16T14:39:01.682Z,94948.00
2019-05-16T14:41:32.182Z,94951.00
2019-05-16T14:44:03.158Z,94938.00
2019-05-16T14:46:33.821Z,94948.00
2019-05-16T14:49:07.520Z,94948.00
2019-05-16T14:51:38.419Z,94949.00
2019-05-16T14:54:08.972Z,94952.00
2019-05-16T14:56:39.462Z,94938.00
2019-05-16T14:59:09.896Z,94948.00
2019-05-16T15:01:40.402Z,94950.00
2019-05-16T15:04:10.858Z,94952.00
2019-05-16T15:06:41.496Z,94949.00
2019-05-16T15:09:11.994Z,94946.00
2019-05-16T15:11:42.533Z,94950.00
2019-05-16T15:14:13.150Z,94948.00
2019-05-16T15:16:43.932Z,94949.00
2019-05-16T15:19:14.552Z,94954.00
2019-05-16T15:21:47.588Z,94951.00
2019-05-16T15:24:18.499Z,94949.00
2019-05-16T15:26:50.411Z,94946.00
2019-05-16T15:29:21.344Z,94955.00
2019-05-16T15:31:53.242Z,94953.00
2019-05-16T15:34:29.891Z,94952.00
2019-05-16T15:37:00.072Z,94952.00
2019-05-16T15:39:31.740Z,94942.00
2019-05-16T15:42:02.266Z,94950.00
2019-05-16T15:44:32.795Z,94949.00
2019-05-16T15:47:03.414Z,94952.00
2019-05-16T15:49:33.927Z,94941.00
2019-05-16T15:52:07.096Z,94950.00
2019-05-16T15:54:37.884Z,94942.00
2019-05-16T15:57:08.442Z,94931.00
2019-05-16T15:59:39.292Z,94934.00
2019-05-16T16:02:09.845Z,94928.00
2019-05-16T16:04:40.433Z,94933.00
2019-05-16T16:07:10.939Z,94926.00
2019-05-16T16:09:42.140Z,94933.00
2019-05-16T16:12:16.979Z,94920.00
2019-05-16T16:14:47.544Z,94918.00
2019-05-16T16:17:18.285Z,94926.00
2019-05-16T16:19:48.788Z,94921.00
2019-05-16T16:22:26.828Z,94921.00
2019-05-16T16:24:57.511Z,94921.00
2019-05-16T16:27:30.234Z,94932.00
2019-05-16T16:30:01.024Z,94925.00
2019-05-16T16:32:31.642Z,94917.00
2019-05-16T16:35:02.270Z,94913.00
2019-05-16T16:37:32.792Z,94922.00
2019-05-16T16:40:11.454Z,94922.00
2019-05-16T16:42:39.149Z,94927.00
2019-05-16T16:45:11.434Z,94925.00
2019-05-16T16:47:41.962Z,94920.00
2019-05-16T16:50:13.064Z,94918.00
2019-05-16T16:52:43.552Z,94916.00
2019-05-16T16:55:16.792Z,94911.00
2019-05-16T16:57:47.248Z,94918.00
2019-05-16T17:00:19.347Z,94925.00
2019-05-16T17:03:02.248Z,94925.00
2019-05-16T17:05:22.031Z,94926.00
2019-05-16T17:07:52.516Z,94927.00
2019-05-16T17:10:23.625Z,94929.00
2019-05-16T17:12:57.706Z,94932.00
2019-05-16T17:15:48.213Z,94924.00
2019-05-16T17:18:19.015Z,94929.00
2019-05-16T17:20:50.056Z,94933.00
2019-05-16T17:23:21.195Z,94926.00
2019-05-16T17:25:58.415Z,94936.00
2019-05-16T17:28:40.212Z,94929.00
2019-05-16T17:31:10.960Z,94928.00
2019-05-16T17:33:41.482Z,94930.00
2019-05-16T17:36:12.141Z,94949.00
2019-05-16T17:38:42.933Z,94938.00
2019-05-16T17:41:13.767Z,94936.00
2019-05-16T17:43:44.235Z,94947.00
2019-05-16T17:46:14.848Z,94946.00
2019-05-16T17:48:46.856Z,94947.00
2019-05-16T17:51:17.899Z,94931.00
2019-05-16T17:53:52.594Z,94945.00
2019-05-16T17:56:23.315Z,94938.00
2019-05-16T17:58:53.972Z,94936.00
2019-05-16T18:01:24.458Z,94948.00
2019-05-16T18:03:57.329Z,94945.00
2019-05-16T18:06:28.068Z,94947.00
2019-05-16T18:08:58.769Z,94948.00
2019-05-16T18:11:30.846Z,94955.00
2019-05-16T18:14:01.567Z,94957.00
2019-05-16T18:16:32.072Z,94965.00
2019-05-16T18:19:02.773Z,94950.00
2019-05-16T18:21:36.990Z,94946.00
2019-05-16T18:24:09.009Z,94949.00
2019-05-16T18:26:39.888Z,94952.00
2019-05-16T18:29:10.586Z,94954.00
2019-05-16T18:31:41.327Z,94946.00
2019-05-16T18:34:11.855Z,94947.00
2019-05-16T18:36:42.506Z,94956.00
2019-05-16T18:39:13.568Z,94958.00
2019-05-16T18:41:44.216Z,94951.00
2019-05-16T18:44:17.052Z,94956.00
2019-05-16T18:46:48.491Z,94957.00
2019-05-16T18:49:19.529Z,94963.00
2019-05-16T18:51:50.025Z,94960.00
2019-05-16T18:54:22.524Z,94963.00
2019-05-16T18:57:07.064Z,94957.00
2019-05-16T18:59:40.361Z,94967.00
2019-05-16T19:02:11.307Z,94960.00
2019-05-16T19:04:58.054Z,94954.00
2019-05-16T19:07:39.093Z,94956.00
2019-05-16T19:10:12.044Z,94956.00
2019-05-16T19:12:51.904Z,94966.00
2019-05-16T19:18:02.861Z,94965.00
2019-05-16T19:20:41.904Z,94961.00
2019-05-16T19:23:12.566Z,94952.00
2019-05-16T19:25:43.215Z,94957.00
2019-05-16T19:28:13.790Z,94959.00
2019-05-16T19:30:46.403Z,94955.00
2019-05-16T19:33:17.413Z,94947.00
2019-05-16T19:35:49.003Z,94940.00
2019-05-16T19:38:19.700Z,94937.00
2019-05-16T19:40:50.442Z,94934.00
2019-05-16T19:43:20.884Z,94923.00
2019-05-16T19:45:51.447Z,94931.00
2019-05-16T19:48:21.927Z,94933.00
2019-05-16T19:50:56.674Z,94936.00
2019-05-16T19:53:26.948Z,94936.00
2019-05-16T19:55:57.185Z,94940.00
2019-05-16T19:58:27.900Z,94939.00
2019-05-16T20:00:58.979Z,94933.00
2019-05-16T20:03:29.618Z,94932.00
2019-05-16T20:06:00.230Z,94936.00
2019-05-16T20:08:32.516Z,94940.00
2019-05-16T20:11:03.077Z,94938.00
2019-05-16T20:13:33.598Z,94935.00
2019-05-16T20:16:04.285Z,94936.00
2019-05-16T20:18:37.209Z,94942.00
2019-05-16T20:21:07.503Z,94946.00
2019-05-16T20:23:38.190Z,94934.00
2019-05-16T20:26:09.214Z,94932.00
2019-05-16T20:28:40.726Z,94931.00
2019-05-16T20:31:11.549Z,94927.00
2019-05-16T20:33:42.071Z,94930.00
2019-05-16T20:36:14.262Z,94921.00
2019-05-16T20:38:46.589Z,94923.00
2019-05-16T20:41:17.381Z,94923.00
2019-05-16T20:43:47.860Z,94930.00
2019-05-16T20:46:20.203Z,94921.00
2019-05-16T20:48:50.699Z,94919.00
2019-05-16T20:51:21.233Z,94917.00
2019-05-16T20:53:51.727Z,94918.00
2019-05-16T20:56:22.258Z,94912.00
2019-05-16T20:58:52.840Z,94906.00
2019-05-16T21:01:23.378Z,94914.00
2019-05-16T21:03:54.261Z,94914.00
2019-05-16T21:06:27.656Z,94911.00
2019-05-16T21:09:00.996Z,94912.00
2019-05-16T21:11:32.746Z,94909.00
2019-05-16T21:14:03.295Z,94903.00
2019-05-16T21:16:33.792Z,94907.00
2019-05-16T21:19:06.839Z,94909.00
2019-05-16T21:21:36.868Z,94899.00
2019-05-16T21:24:07.589Z,94901.00
2019-05-16T21:26:38.198Z,94891.00
2019-05-16T21:29:08.786Z,94891.00
2019-05-16T21:31:39.322Z,94892.00
2019-05-16T21:34:09.892Z,94898.00
2019-05-16T21:36:40.390Z,94887.00
2019-05-16T21:39:10.942Z,94878.00
2019-05-16T21:41:41.434Z,94887.00
2019-05-16T21:44:12.244Z,94873.00
2019-05-16T21:46:42.761Z,94876.00
2019-05-16T21:49:13.272Z,94874.00
2019-05-16T21:51:43.750Z,94876.00
2019-05-16T21:54:14.393Z,94872.00
2019-05-16T21:56:46.902Z,94867.00
2019-05-16T21:59:22.151Z,94863.00
2019-05-16T22:01:52.801Z,94865.00
2019-05-16T22:04:23.372Z,94863.00
2019-05-16T22:06:53.887Z,94859.00
2019-05-16T22:09:26.481Z,94855.00
2019-05-16T22:11:57.339Z,94854.00
2019-05-16T22:14:36.845Z,94858.00
2019-05-16T22:17:07.538Z,94862.00
2019-05-16T22:19:38.188Z,94853.00
2019-05-16T22:22:08.797Z,94851.00
2019-05-16T22:24:39.307Z,94849.00
2019-05-16T22:27:09.929Z,94843.00
2019-05-16T22:29:40.489Z,94843.00
2019-05-16T22:32:10.997Z,94843.00
2019-05-16T22:34:41.861Z,94829.00
2019-05-16T22:37:12.441Z,94830.00
2019-05-16T22:39:44.792Z,94832.00
2019-05-16T22:42:17.459Z,94829.00
2019-05-16T22:44:47.578Z,94831.00
2019-05-16T22:47:18.284Z,94829.00
2019-05-16T22:49:48.895Z,94829.00
2019-05-16T22:52:19.873Z,94829.00
2019-05-16T22:54:50.703Z,94829.00
2019-05-16T22:57:21.184Z,94825.00
2019-05-16T22:59:51.714Z,94822.00
2019-05-16T23:02:22.248Z,94813.00
2019-05-16T23:04:52.777Z,94812.00
2019-05-16T23:07:23.415Z,94816.00
2019-05-16T23:09:56.295Z,94813.00
2019-05-16T23:12:26.759Z,94806.00
2019-05-16T23:14:57.229Z,94806.00
2019-05-16T23:17:27.700Z,94800.00
2019-05-16T23:19:58.207Z,94794.00
2019-05-16T23:22:28.887Z,94795.00
2019-05-16T23:24:59.398Z,94797.00
2019-05-16T23:27:30.041Z,94799.00
2019-05-16T23:30:00.691Z,94802.00
2019-05-16T23:32:31.199Z,94795.00
2019-05-16T23:35:01.717Z,94789.00
2019-05-16T23:37:32.208Z,94796.00
2019-05-16T23:40:02.726Z,94788.00
2019-05-16T23:42:33.251Z,94790.00
2019-05-16T23:45:04.012Z,94781.00
2019-05-16T23:47:36.598Z,94772.00
2019-05-16T23:50:08.327Z,94776.00
2019-05-16T23:52:38.922Z,94776.00
2019-05-16T23:55:10.017Z,94767.00
2019-05-16T23:57:40.644Z,94768.00
